createdAt,value
2017-09-09T00:00:56.644Z,992.51
2017-09-09T00:01:56.668Z,992.52
2017-09-09T00:03:51.117Z,992.52
2017-09-09T00:04:51.149Z,992.54
2017-09-09T00:06:45.637Z,992.49
2017-09-09T00:07:45.645Z,992.46
2017-09-09T00:09:40.125Z,992.44
2017-09-09T00:10:40.149Z,992.43
2017-09-09T00:12:34.664Z,992.41
2017-09-09T00:13:43.340Z,992.38
2017-09-09T00:15:29.125Z,992.34
2017-09-09T00:16:29.165Z,992.37
2017-09-09T00:18:23.637Z,992.39
2017-09-09T00:19:23.653Z,992.38
2017-09-09T00:21:18.101Z,992.36
2017-09-09T00:22:18.445Z,992.38
2017-09-09T00:24:12.630Z,992.32
2017-09-09T00:25:12.805Z,992.35
2017-09-09T00:27:07.125Z,992.31
2017-09-09T00:28:07.142Z,992.28
2017-09-09T00:30:01.598Z,992.32
2017-09-09T00:31:01.637Z,992.33
2017-09-09T00:32:55.166Z,992.29
2017-09-09T00:33:55.125Z,992.25
2017-09-09T00:35:49.606Z,992.29
2017-09-09T00:36:49.670Z,992.25
2017-09-09T00:38:44.113Z,992.28
2017-09-09T00:39:44.161Z,992.27
2017-09-09T00:41:38.601Z,992.23
2017-09-09T00:42:38.642Z,992.26
2017-09-09T00:44:33.121Z,992.23
2017-09-09T00:45:33.140Z,992.23
2017-09-09T00:47:27.620Z,992.19
2017-09-09T00:48:27.625Z,992.20
2017-09-09T00:50:22.097Z,992.19
2017-09-09T00:51:22.121Z,992.21
2017-09-09T00:53:16.610Z,992.12
2017-09-09T00:54:16.610Z,992.17
2017-09-09T00:56:11.066Z,992.12
2017-09-09T00:57:11.106Z,992.13
2017-09-09T00:59:05.586Z,992.09
2017-09-09T01:00:05.593Z,992.07
2017-09-09T01:02:00.081Z,992.09
2017-09-09T01:03:00.114Z,992.06
2017-09-09T01:04:54.602Z,992.06
2017-09-09T01:05:54.602Z,992.06
2017-09-09T01:07:49.066Z,991.96
2017-09-09T01:08:49.090Z,991.98
2017-09-09T01:10:43.538Z,991.94
2017-09-09T01:11:43.578Z,991.87
2017-09-09T01:13:38.074Z,991.91
2017-09-09T01:14:38.068Z,991.97
2017-09-09T01:16:32.547Z,991.83
2017-09-09T01:17:32.595Z,991.88
2017-09-09T01:19:27.053Z,991.80
2017-09-09T01:20:27.059Z,991.81
2017-09-09T01:22:20.515Z,991.84
2017-09-09T01:23:20.562Z,991.82
2017-09-09T01:25:15.037Z,991.79
2017-09-09T01:26:15.043Z,991.77
2017-09-09T01:28:09.499Z,991.73
2017-09-09T01:29:09.547Z,991.76
2017-09-09T01:31:04.019Z,991.76
2017-09-09T01:32:04.035Z,991.76
2017-09-09T01:33:58.531Z,991.69
2017-09-09T01:34:58.546Z,991.68
2017-09-09T01:36:53.034Z,991.63
2017-09-09T01:37:53.066Z,991.62
2017-09-09T01:39:47.539Z,991.56
2017-09-09T01:40:47.539Z,991.57
2017-09-09T01:42:42.043Z,991.56
2017-09-09T01:43:42.050Z,991.56
2017-09-09T01:45:36.531Z,991.54
2017-09-09T01:46:36.571Z,991.52
2017-09-09T01:48:31.003Z,991.60
2017-09-09T01:49:31.030Z,991.60
2017-09-09T01:51:26.419Z,991.58
2017-09-09T01:52:35.019Z,991.54
2017-09-09T01:54:20.827Z,991.54
2017-09-09T01:55:20.851Z,991.49
2017-09-09T01:57:15.323Z,991.50
2017-09-09T01:58:15.339Z,991.47
2017-09-09T02:00:08.803Z,991.46
2017-09-09T02:01:08.844Z,991.43
2017-09-09T02:03:03.332Z,991.42
2017-09-09T02:04:03.347Z,991.49
2017-09-09T02:05:57.819Z,991.44
2017-09-09T02:06:57.843Z,991.43
2017-09-09T02:08:52.315Z,991.43
2017-09-09T02:09:52.332Z,991.42
2017-09-09T02:11:46.788Z,991.43
2017-09-09T02:12:46.820Z,991.41
2017-09-09T02:14:41.308Z,991.38
2017-09-09T02:15:41.324Z,991.37
2017-09-09T02:17:35.772Z,991.35
2017-09-09T02:18:35.828Z,991.33
2017-09-09T02:20:30.348Z,991.33
2017-09-09T02:21:30.325Z,991.33
2017-09-09T02:23:24.756Z,991.31
2017-09-09T02:24:24.804Z,991.29
2017-09-09T02:26:19.284Z,991.31
2017-09-09T02:27:19.300Z,991.31
2017-09-09T02:29:13.789Z,991.26
2017-09-09T02:30:13.788Z,991.17
2017-09-09T02:32:08.245Z,991.20
2017-09-09T02:33:08.293Z,991.24
2017-09-09T02:35:02.781Z,991.20
2017-09-09T02:36:02.772Z,991.21
2017-09-09T02:37:57.245Z,991.19
2017-09-09T02:38:57.269Z,991.16
2017-09-09T02:40:51.740Z,991.15
2017-09-09T02:41:51.757Z,991.15
2017-09-09T02:43:46.261Z,991.15
2017-09-09T02:44:46.272Z,991.18
2017-09-09T02:46:40.709Z,991.16
2017-09-09T02:47:40.773Z,991.09
2017-09-09T02:49:34.236Z,991.11
2017-09-09T02:50:34.246Z,991.10
2017-09-09T02:52:28.703Z,991.12
2017-09-09T02:53:28.741Z,991.11
2017-09-09T02:55:23.237Z,991.12
2017-09-09T02:56:23.254Z,991.05
2017-09-09T02:58:17.742Z,991.08
2017-09-09T02:59:17.757Z,990.96
2017-09-09T03:01:12.246Z,991.04
2017-09-09T03:02:12.256Z,990.91
2017-09-09T03:04:06.726Z,990.97
2017-09-09T03:05:06.758Z,991.04
2017-09-09T03:07:01.214Z,990.99
2017-09-09T03:08:01.254Z,991.00
2017-09-09T03:09:55.734Z,990.95
2017-09-09T03:10:55.743Z,990.92
2017-09-09T03:12:49.182Z,990.95
2017-09-09T03:13:49.230Z,990.93
2017-09-09T03:15:43.727Z,990.96
2017-09-09T03:16:43.719Z,990.91
2017-09-09T03:18:38.174Z,990.88
2017-09-09T03:19:38.214Z,990.87
2017-09-09T03:21:32.686Z,990.81
2017-09-09T03:22:32.694Z,990.79
2017-09-09T03:24:27.193Z,990.79
2017-09-09T03:25:27.183Z,990.86
2017-09-09T03:27:21.662Z,990.86
2017-09-09T03:28:21.747Z,990.82
2017-09-09T03:30:16.167Z,990.75
2017-09-09T03:31:16.192Z,990.73
2017-09-09T03:33:10.688Z,990.72
2017-09-09T03:34:10.687Z,990.74
2017-09-09T03:36:04.143Z,990.76
2017-09-09T03:37:04.167Z,990.72
2017-09-09T03:38:58.663Z,990.67
2017-09-09T03:39:58.679Z,990.60
2017-09-09T03:41:53.135Z,990.57
2017-09-09T03:42:53.168Z,990.60
2017-09-09T03:44:47.688Z,990.57
2017-09-09T03:45:47.668Z,990.55
2017-09-09T03:47:42.121Z,990.55
2017-09-09T03:48:42.168Z,990.50
2017-09-09T03:50:35.640Z,990.53
2017-09-09T03:51:35.651Z,990.53
2017-09-09T03:53:30.120Z,990.49
2017-09-09T03:54:30.140Z,990.52
2017-09-09T03:56:24.585Z,990.51
2017-09-09T03:57:24.625Z,990.44
2017-09-09T03:59:19.112Z,990.38
2017-09-09T04:00:19.112Z,990.37
2017-09-09T04:02:13.577Z,990.35
2017-09-09T04:03:13.616Z,990.37
2017-09-09T04:05:08.112Z,990.35
2017-09-09T04:06:08.105Z,990.34
2017-09-09T04:08:02.593Z,990.27
2017-09-09T04:09:02.609Z,990.31
2017-09-09T04:10:56.065Z,990.30
2017-09-09T04:11:56.109Z,990.28
2017-09-09T04:13:50.617Z,990.32
2017-09-09T04:14:50.601Z,990.27
2017-09-09T04:16:45.066Z,990.29
2017-09-09T04:17:45.113Z,990.33
2017-09-09T04:19:39.577Z,990.30
2017-09-09T04:20:39.593Z,990.27
2017-09-09T04:22:33.073Z,990.29
2017-09-09T04:23:33.073Z,990.29
2017-09-09T04:25:27.529Z,990.24
2017-09-09T04:26:27.586Z,990.24
2017-09-09T04:28:22.074Z,990.25
2017-09-09T04:29:22.074Z,990.31
2017-09-09T04:31:16.521Z,990.29
2017-09-09T04:32:16.570Z,990.25
2017-09-09T04:34:11.058Z,990.26
2017-09-09T04:35:11.082Z,990.28
2017-09-09T04:37:05.514Z,990.25
2017-09-09T04:38:05.567Z,990.26
2017-09-09T04:40:00.026Z,990.22
2017-09-09T04:41:00.061Z,990.22
2017-09-09T04:42:54.516Z,990.21
2017-09-09T04:43:54.548Z,990.23
2017-09-09T04:45:49.012Z,990.23
2017-09-09T04:46:49.052Z,990.18
2017-09-09T04:48:43.501Z,990.21
2017-09-09T04:49:43.524Z,990.18
2017-09-09T04:51:37.988Z,990.15
2017-09-09T04:52:38.036Z,990.18
2017-09-09T04:54:32.500Z,990.18
2017-09-09T04:55:32.517Z,990.13
2017-09-09T04:57:26.997Z,990.19
2017-09-09T04:58:27.013Z,990.20
2017-09-09T05:00:21.501Z,990.24
2017-09-09T05:01:21.501Z,990.26
2017-09-09T05:03:15.957Z,990.26
2017-09-09T05:04:15.989Z,990.25
2017-09-09T05:06:10.477Z,990.17
2017-09-09T05:07:10.485Z,990.19
2017-09-09T05:09:03.933Z,990.15
2017-09-09T05:10:03.965Z,990.19
2017-09-09T05:11:58.454Z,990.18
2017-09-09T05:12:58.477Z,990.20
2017-09-09T05:14:52.949Z,990.17
2017-09-09T05:15:52.958Z,990.13
2017-09-09T05:17:47.462Z,990.11
2017-09-09T05:18:47.445Z,990.12
2017-09-09T05:20:41.934Z,990.09
2017-09-09T05:21:41.949Z,990.11
2017-09-09T05:23:36.414Z,990.10
2017-09-09T05:24:36.437Z,990.06
2017-09-09T05:26:30.902Z,990.06
2017-09-09T05:27:30.934Z,990.04
2017-09-09T05:29:24.422Z,990.00
2017-09-09T05:30:24.422Z,990.03
2017-09-09T05:32:18.886Z,990.07
2017-09-09T05:33:18.918Z,990.10
2017-09-09T05:35:13.390Z,990.10
2017-09-09T05:36:13.407Z,990.11
2017-09-09T05:38:07.854Z,990.00
2017-09-09T05:39:07.897Z,990.05
2017-09-09T05:41:02.391Z,990.05
2017-09-09T05:42:02.407Z,990.05
2017-09-09T05:43:55.871Z,990.06
2017-09-09T05:44:55.903Z,990.10
2017-09-09T05:46:50.439Z,990.01
2017-09-09T05:47:50.392Z,990.01
2017-09-09T05:49:44.839Z,990.03
2017-09-09T05:50:44.891Z,990.02
2017-09-09T05:52:39.343Z,990.00
2017-09-09T05:53:39.375Z,990.02
2017-09-09T05:55:33.823Z,989.99
2017-09-09T05:56:33.863Z,990.01
2017-09-09T05:58:28.327Z,990.03
2017-09-09T05:59:28.361Z,989.97
2017-09-09T06:01:22.800Z,989.96
2017-09-09T06:02:22.847Z,989.99
2017-09-09T06:04:17.312Z,989.97
2017-09-09T06:05:17.376Z,990.01
2017-09-09T06:07:11.775Z,990.03
2017-09-09T06:08:12.193Z,990.00
2017-09-09T06:10:06.296Z,990.03
2017-09-09T06:11:06.366Z,989.98
2017-09-09T06:13:00.769Z,990.00
2017-09-09T06:14:00.849Z,989.99
2017-09-09T06:15:55.288Z,990.05
2017-09-09T06:16:55.320Z,990.00
2017-09-09T06:18:49.912Z,989.98
2017-09-09T06:19:49.992Z,990.04
2017-09-09T06:21:45.184Z,989.96
2017-09-09T06:22:45.201Z,989.98
2017-09-09T06:24:39.649Z,989.97
2017-09-09T06:25:39.688Z,989.97
2017-09-09T06:27:34.176Z,989.98
2017-09-09T06:28:34.184Z,989.97
2017-09-09T06:30:29.224Z,990.01
2017-09-09T06:31:28.680Z,989.97
2017-09-09T06:33:23.148Z,990.01
2017-09-09T06:34:23.164Z,990.06
2017-09-09T06:36:17.648Z,990.05
2017-09-09T06:37:17.679Z,990.04
2017-09-09T06:39:12.152Z,990.07
2017-09-09T06:40:12.169Z,990.09
2017-09-09T06:42:05.640Z,990.10
2017-09-09T06:43:05.665Z,990.13
2017-09-09T06:45:00.113Z,990.06
2017-09-09T06:46:00.153Z,990.03
2017-09-09T06:47:54.634Z,990.00
2017-09-09T06:48:54.984Z,990.00
2017-09-09T06:50:49.169Z,989.94
2017-09-09T06:51:49.145Z,989.98
2017-09-09T06:53:43.745Z,989.92
2017-09-09T06:54:43.633Z,989.95
2017-09-09T06:56:38.210Z,989.93
2017-09-09T06:57:38.124Z,989.98
2017-09-09T06:59:31.609Z,989.97
2017-09-09T07:00:31.625Z,989.99
2017-09-09T07:02:26.106Z,989.92
2017-09-09T07:03:26.113Z,989.96
2017-09-09T07:05:19.593Z,989.94
2017-09-09T07:06:19.617Z,989.95
2017-09-09T07:08:14.105Z,989.92
2017-09-09T07:09:14.089Z,989.95
2017-09-09T07:11:08.586Z,989.93
2017-09-09T07:12:07.593Z,989.91
2017-09-09T07:14:02.058Z,989.90
2017-09-09T07:15:02.089Z,989.92
2017-09-09T07:16:56.474Z,989.97
2017-09-09T07:17:56.490Z,989.90
2017-09-09T07:19:50.922Z,989.93
2017-09-09T07:20:50.947Z,989.94
2017-09-09T07:22:44.530Z,989.98
2017-09-09T07:23:44.506Z,989.96
2017-09-09T07:25:38.010Z,989.92
2017-09-09T07:26:38.002Z,989.92
2017-09-09T07:28:31.475Z,989.96
2017-09-09T07:29:31.490Z,990.02
2017-09-09T07:31:25.987Z,990.04
2017-09-09T07:32:26.018Z,990.08
2017-09-09T07:34:20.499Z,990.09
2017-09-09T07:35:20.507Z,990.05
2017-09-09T07:37:13.970Z,990.09
2017-09-09T07:38:14.003Z,990.12
2017-09-09T07:40:07.027Z,990.03
2017-09-09T07:41:07.043Z,990.04
2017-09-09T07:43:01.523Z,990.06
2017-09-09T07:44:01.547Z,990.07
2017-09-09T07:45:56.051Z,990.00
2017-09-09T07:46:56.155Z,990.04
2017-09-09T07:48:50.531Z,990.02
2017-09-09T07:49:50.579Z,990.00
2017-09-09T07:51:45.044Z,989.99
2017-09-09T07:52:45.059Z,990.03
2017-09-09T07:54:39.557Z,990.01
2017-09-09T07:55:39.554Z,990.02
2017-09-09T07:57:34.018Z,990.05
2017-09-09T07:58:34.082Z,990.05
2017-09-09T08:00:28.538Z,990.07
2017-09-09T08:01:28.594Z,990.11
2017-09-09T08:03:23.050Z,990.09
2017-09-09T08:04:23.066Z,990.10
2017-09-09T08:06:17.522Z,990.07
2017-09-09T08:07:17.610Z,990.07
2017-09-09T08:09:12.066Z,990.09
2017-09-09T08:10:12.082Z,990.06
2017-09-09T08:12:06.548Z,990.08
2017-09-09T08:13:06.611Z,990.09
2017-09-09T08:15:00.091Z,990.06
2017-09-09T08:16:00.131Z,990.10
2017-09-09T08:17:55.259Z,990.03
2017-09-09T08:19:03.483Z,990.03
2017-09-09T08:20:50.691Z,990.14
2017-09-09T08:21:50.659Z,990.17
2017-09-09T08:23:44.747Z,990.18
2017-09-09T08:24:44.787Z,990.23
2017-09-09T08:26:39.283Z,990.42
2017-09-09T08:27:39.371Z,990.30
2017-09-09T08:29:33.755Z,990.28
2017-09-09T08:30:33.762Z,990.38
2017-09-09T08:32:28.209Z,990.25
2017-09-09T08:33:28.258Z,990.28
2017-09-09T08:35:21.241Z,990.34
2017-09-09T08:36:21.249Z,990.32
2017-09-09T08:38:15.745Z,990.35
2017-09-09T08:39:15.770Z,990.41
2017-09-09T08:41:09.266Z,990.40
2017-09-09T08:42:17.906Z,990.45
2017-09-09T08:44:02.698Z,990.39
2017-09-09T08:45:02.754Z,990.43
2017-09-09T08:46:56.290Z,990.52
2017-09-09T08:47:56.306Z,990.49
2017-09-09T08:49:50.810Z,990.56
2017-09-09T08:50:50.817Z,990.55
2017-09-09T08:52:46.298Z,990.52
2017-09-09T08:53:46.290Z,990.55
2017-09-09T08:55:40.794Z,990.82
2017-09-09T08:56:40.826Z,990.73
2017-09-09T08:58:35.118Z,990.79
2017-09-09T08:59:35.139Z,990.80
2017-09-09T09:01:29.642Z,990.73
2017-09-09T09:02:29.658Z,990.76
2017-09-09T09:04:23.646Z,990.93
2017-09-09T09:05:23.458Z,991.06
2017-09-09T09:07:17.947Z,991.26
2017-09-09T09:08:17.939Z,991.50
2017-09-09T09:10:11.466Z,991.34
2017-09-09T09:11:11.507Z,991.36
2017-09-09T09:13:07.515Z,991.35
2017-09-09T09:14:07.515Z,991.41
2017-09-09T09:16:01.108Z,991.55
2017-09-09T09:17:01.149Z,991.53
2017-09-09T09:18:55.693Z,992.16
2017-09-09T09:19:55.683Z,991.90
2017-09-09T09:21:50.126Z,991.79
2017-09-09T09:22:50.155Z,991.67
2017-09-09T09:24:44.621Z,991.61
2017-09-09T09:25:44.653Z,991.57
2017-09-09T09:27:39.117Z,991.57
2017-09-09T09:28:39.146Z,991.52
2017-09-09T09:30:33.683Z,991.51
2017-09-09T09:31:33.738Z,991.90
2017-09-09T09:33:27.115Z,991.88
2017-09-09T09:34:27.162Z,992.06
2017-09-09T09:36:21.652Z,991.76
2017-09-09T09:37:21.655Z,991.70
2017-09-09T09:39:16.152Z,991.85
2017-09-09T09:40:17.982Z,991.88
2017-09-09T09:42:10.629Z,992.05
2017-09-09T09:43:10.677Z,991.97
2017-09-09T09:45:05.181Z,992.10
2017-09-09T09:46:05.206Z,991.83
2017-09-09T09:47:59.678Z,991.71
2017-09-09T09:48:59.726Z,991.95
2017-09-09T09:50:54.214Z,991.77
2017-09-09T09:51:54.230Z,991.79
2017-09-09T09:53:48.720Z,991.73
2017-09-09T09:54:48.798Z,991.74
2017-09-09T09:56:43.214Z,991.71
2017-09-09T09:57:43.255Z,991.71
2017-09-09T09:59:37.743Z,991.65
2017-09-09T10:00:37.766Z,991.79
2017-09-09T10:02:33.335Z,991.84
2017-09-09T10:03:33.294Z,991.82
2017-09-09T10:05:26.976Z,991.82
2017-09-09T10:06:26.799Z,991.83
2017-09-09T10:08:20.383Z,991.89
2017-09-09T10:09:19.927Z,991.87
2017-09-09T10:11:14.407Z,991.98
2017-09-09T10:12:14.443Z,991.98
2017-09-09T10:14:10.015Z,992.16
2017-09-09T10:15:09.983Z,992.30
2017-09-09T10:17:03.693Z,992.31
2017-09-09T10:18:03.528Z,992.29
2017-09-09T10:19:58.000Z,992.31
2017-09-09T10:20:58.072Z,992.28
2017-09-09T10:22:51.503Z,992.24
2017-09-09T10:23:51.632Z,991.98
2017-09-09T10:25:45.032Z,992.00
2017-09-09T10:26:45.056Z,992.43
2017-09-09T10:28:39.544Z,992.07
2017-09-09T10:29:39.568Z,992.06
2017-09-09T10:31:33.119Z,992.05
2017-09-09T10:32:34.231Z,992.47
2017-09-09T10:34:26.600Z,992.06
2017-09-09T10:35:26.655Z,992.10
2017-09-09T10:37:21.502Z,992.02
2017-09-09T10:38:21.271Z,992.05
2017-09-09T10:40:15.334Z,992.01
2017-09-09T10:41:14.742Z,992.11
2017-09-09T10:43:09.231Z,992.19
2017-09-09T10:44:09.264Z,992.53
2017-09-09T10:46:03.735Z,992.13
2017-09-09T10:47:03.769Z,992.07
2017-09-09T10:48:57.289Z,992.16
2017-09-09T10:49:57.320Z,992.12
2017-09-09T10:51:51.776Z,992.07
2017-09-09T10:52:51.833Z,992.17
2017-09-09T10:54:46.348Z,992.68
2017-09-09T10:55:46.378Z,992.22
2017-09-09T10:57:40.818Z,992.51
2017-09-09T10:58:40.914Z,992.77
2017-09-09T11:00:34.322Z,992.84
2017-09-09T11:01:34.371Z,992.31
2017-09-09T11:03:28.794Z,992.30
2017-09-09T11:04:28.834Z,992.28
2017-09-09T11:06:22.338Z,992.28
2017-09-09T11:07:22.364Z,992.27
2017-09-09T11:09:15.867Z,992.28
2017-09-09T11:10:15.906Z,992.31
2017-09-09T11:12:10.355Z,992.35
2017-09-09T11:13:10.386Z,992.37
2017-09-09T11:15:04.906Z,992.38
2017-09-09T11:16:04.907Z,992.40
2017-09-09T11:17:57.874Z,992.40
2017-09-09T11:18:57.923Z,992.39
2017-09-09T11:20:53.412Z,992.70
2017-09-09T11:21:53.435Z,993.04
2017-09-09T11:23:46.933Z,993.01
2017-09-09T11:24:46.971Z,993.05
2017-09-09T11:26:40.507Z,993.07
2017-09-09T11:27:40.499Z,992.69
2017-09-09T11:29:35.011Z,992.47
2017-09-09T11:30:35.068Z,992.53
2017-09-09T11:32:29.548Z,992.39
2017-09-09T11:33:29.604Z,992.40
2017-09-09T11:35:24.076Z,992.49
2017-09-09T11:36:24.091Z,992.42
2017-09-09T11:38:18.556Z,992.48
2017-09-09T11:39:18.603Z,992.42
2017-09-09T11:41:14.596Z,992.41
2017-09-09T11:42:14.612Z,992.41
2017-09-09T11:44:09.092Z,992.46
2017-09-09T11:45:09.124Z,992.43
2017-09-09T11:47:03.628Z,992.44
2017-09-09T11:48:03.644Z,992.46
2017-09-09T11:49:58.132Z,992.51
2017-09-09T11:50:58.148Z,992.54
2017-09-09T11:52:52.644Z,992.56
2017-09-09T11:53:52.668Z,992.55
2017-09-09T11:55:47.164Z,992.52
2017-09-09T11:56:47.173Z,992.57
2017-09-09T11:58:41.670Z,992.62
2017-09-09T11:59:41.661Z,992.64
2017-09-09T12:01:36.149Z,992.73
2017-09-09T12:02:36.188Z,992.72
2017-09-09T12:04:30.663Z,992.71
2017-09-09T12:05:30.677Z,992.72
2017-09-09T12:07:25.221Z,992.71
2017-09-09T12:08:25.185Z,992.75
2017-09-09T12:10:19.645Z,992.73
2017-09-09T12:11:19.709Z,992.77
2017-09-09T12:13:13.188Z,992.83
2017-09-09T12:14:13.677Z,992.80
2017-09-09T12:16:06.669Z,992.81
2017-09-09T12:17:06.709Z,992.83
2017-09-09T12:19:01.189Z,992.84
2017-09-09T12:20:01.230Z,992.90
2017-09-09T12:21:55.696Z,992.93
2017-09-09T12:22:55.726Z,992.93
2017-09-09T12:24:50.214Z,992.89
2017-09-09T12:25:50.287Z,992.87
2017-09-09T12:27:44.750Z,992.92
2017-09-09T12:28:44.736Z,992.93
2017-09-09T12:30:39.839Z,992.86
2017-09-09T12:31:39.334Z,992.86
2017-09-09T12:33:33.782Z,992.98
2017-09-09T12:34:34.942Z,993.01
2017-09-09T12:36:28.311Z,992.99
2017-09-09T12:37:28.695Z,992.94
2017-09-09T12:39:22.798Z,992.92
2017-09-09T12:40:22.823Z,992.96
2017-09-09T12:42:16.326Z,993.03
2017-09-09T12:43:16.318Z,993.03
2017-09-09T12:45:10.807Z,993.07
2017-09-09T12:46:10.831Z,993.08
2017-09-09T12:48:05.303Z,993.05
2017-09-09T12:49:05.335Z,993.08
2017-09-09T12:50:59.791Z,993.14
2017-09-09T12:51:59.854Z,993.15
2017-09-09T12:53:54.295Z,993.18
2017-09-09T12:54:54.319Z,993.20
2017-09-09T12:56:48.847Z,993.22
2017-09-09T12:57:48.864Z,993.23
2017-09-09T12:59:42.629Z,993.25
2017-09-09T13:00:42.725Z,993.26
2017-09-09T13:02:37.126Z,993.23
2017-09-09T13:03:37.144Z,993.24
2017-09-09T13:05:31.673Z,993.21
2017-09-09T13:06:31.651Z,993.16
2017-09-09T13:08:26.441Z,993.19
2017-09-09T13:09:26.152Z,993.19
2017-09-09T13:11:20.737Z,993.22
2017-09-09T13:12:20.712Z,993.25
2017-09-09T13:14:16.723Z,993.28
2017-09-09T13:15:16.761Z,993.29
2017-09-09T13:17:11.145Z,993.33
2017-09-09T13:18:11.194Z,993.34
2017-09-09T13:20:06.257Z,993.49
2017-09-09T13:21:05.805Z,993.60
2017-09-09T13:23:00.163Z,993.50
2017-09-09T13:24:00.185Z,993.53
2017-09-09T13:25:54.706Z,993.56
2017-09-09T13:26:54.697Z,993.57
2017-09-09T13:28:48.177Z,993.57
2017-09-09T13:29:48.193Z,993.58
2017-09-09T13:31:42.722Z,993.48
2017-09-09T13:32:42.761Z,993.56
2017-09-09T13:34:37.369Z,993.57
2017-09-09T13:35:37.265Z,993.57
2017-09-09T13:37:31.737Z,993.55
2017-09-09T13:38:31.786Z,993.55
2017-09-09T13:40:25.218Z,993.56
2017-09-09T13:41:25.266Z,993.56
2017-09-09T13:43:19.746Z,993.55
2017-09-09T13:44:19.794Z,993.59
2017-09-09T13:46:14.259Z,993.59
2017-09-09T13:47:14.282Z,993.58
2017-09-09T13:49:16.386Z,993.60
2017-09-09T13:50:08.771Z,993.61
2017-09-09T13:52:03.291Z,993.74
2017-09-09T13:53:03.298Z,993.78
2017-09-09T13:54:57.738Z,993.86
2017-09-09T13:55:57.778Z,993.89
2017-09-09T13:57:52.323Z,993.95
2017-09-09T13:58:52.314Z,993.96
2017-09-09T14:00:45.794Z,993.82
2017-09-09T14:01:45.883Z,993.85
2017-09-09T14:03:40.333Z,993.86
2017-09-09T14:04:40.379Z,993.80
2017-09-09T14:06:36.371Z,993.78
2017-09-09T14:07:36.362Z,993.77
2017-09-09T14:09:29.907Z,993.72
2017-09-09T14:10:29.939Z,993.74
2017-09-09T14:12:24.419Z,993.74
2017-09-09T14:13:24.443Z,993.69
2017-09-09T14:15:19.019Z,993.70
2017-09-09T14:16:18.972Z,993.65
2017-09-09T14:18:12.486Z,993.71
2017-09-09T14:19:12.508Z,993.76
2017-09-09T14:21:05.964Z,993.90
2017-09-09T14:22:06.012Z,993.97
2017-09-09T14:24:00.520Z,994.02
2017-09-09T14:25:00.523Z,994.06
2017-09-09T14:26:55.076Z,994.03
2017-09-09T14:27:55.110Z,993.81
2017-09-09T14:29:49.604Z,993.75
2017-09-09T14:30:49.620Z,993.69
2017-09-09T14:32:44.140Z,993.67
2017-09-09T14:33:44.173Z,993.71
2017-09-09T14:35:37.644Z,993.72
2017-09-09T14:36:37.669Z,993.76
2017-09-09T14:38:32.149Z,993.85
2017-09-09T14:39:32.180Z,993.84
2017-09-09T14:41:26.685Z,993.81
2017-09-09T14:42:26.692Z,993.84
2017-09-09T14:44:21.173Z,993.88
2017-09-09T14:45:21.204Z,993.91
2017-09-09T14:47:15.701Z,993.99
2017-09-09T14:48:15.726Z,993.95
2017-09-09T14:50:10.221Z,993.98
2017-09-09T14:51:10.245Z,993.99
2017-09-09T14:53:04.717Z,994.01
2017-09-09T14:54:04.757Z,994.08
2017-09-09T14:55:59.245Z,994.12
2017-09-09T14:56:59.270Z,994.07
2017-09-09T14:58:53.733Z,993.96
2017-09-09T14:59:53.782Z,993.96
2017-09-09T15:01:48.311Z,993.93
2017-09-09T15:02:48.329Z,993.88
2017-09-09T15:04:41.837Z,993.84
2017-09-09T15:05:41.861Z,993.85
2017-09-09T15:07:36.349Z,993.87
2017-09-09T15:08:36.377Z,993.94
2017-09-09T15:10:30.846Z,994.01
2017-09-09T15:11:30.886Z,994.08
2017-09-09T15:13:24.438Z,994.13
2017-09-09T15:14:24.454Z,994.18
2017-09-09T15:16:18.924Z,994.15
2017-09-09T15:17:18.974Z,994.17
2017-09-09T15:19:13.462Z,994.20
2017-09-09T15:20:13.526Z,994.20
2017-09-09T15:22:07.006Z,994.08
2017-09-09T15:23:07.006Z,994.08
2017-09-09T15:25:01.503Z,994.03
2017-09-09T15:26:01.526Z,994.08
2017-09-09T15:27:56.030Z,994.10
2017-09-09T15:28:56.042Z,994.08
2017-09-09T15:30:50.503Z,994.13
2017-09-09T15:31:50.544Z,994.12
2017-09-09T15:33:45.055Z,994.11
2017-09-09T15:34:45.100Z,994.16
2017-09-09T15:36:39.560Z,994.20
2017-09-09T15:37:39.816Z,994.14
2017-09-09T15:39:34.080Z,994.13
2017-09-09T15:40:34.104Z,994.14
2017-09-09T15:42:28.680Z,994.15
2017-09-09T15:43:28.688Z,994.15
2017-09-09T15:45:22.359Z,994.19
2017-09-09T15:46:22.217Z,994.20
2017-09-09T15:48:16.704Z,994.23
2017-09-09T15:49:16.727Z,994.20
2017-09-09T15:51:10.175Z,994.25
2017-09-09T15:52:10.548Z,994.27
2017-09-09T15:54:04.753Z,994.33
2017-09-09T15:55:04.735Z,994.32
2017-09-09T15:56:59.208Z,994.29
2017-09-09T15:57:59.360Z,994.34
2017-09-09T15:59:53.728Z,994.38
2017-09-09T16:00:53.736Z,994.38
2017-09-09T16:02:48.392Z,994.40
2017-09-09T16:03:48.264Z,994.46
2017-09-09T16:05:42.744Z,994.59
2017-09-09T16:06:42.768Z,994.55
2017-09-09T16:08:37.649Z,994.61
2017-09-09T16:09:37.320Z,994.61
2017-09-09T16:11:31.756Z,994.67
2017-09-09T16:12:31.807Z,994.65
2017-09-09T16:14:25.288Z,994.63
2017-09-09T16:15:25.340Z,994.65
2017-09-09T16:17:19.776Z,994.69
2017-09-09T16:18:19.825Z,994.69
2017-09-09T16:20:14.560Z,994.65
2017-09-09T16:21:14.328Z,994.70
2017-09-09T16:23:09.857Z,994.69
2017-09-09T16:24:10.025Z,994.73
2017-09-09T16:26:04.288Z,994.72
2017-09-09T16:27:04.665Z,994.71
2017-09-09T16:28:58.825Z,994.77
2017-09-09T16:29:58.834Z,994.77
2017-09-09T16:31:54.056Z,994.77
2017-09-09T16:32:53.337Z,994.80
2017-09-09T16:34:47.816Z,994.79
2017-09-09T16:35:47.832Z,994.81
2017-09-09T16:37:42.296Z,994.77
2017-09-09T16:38:42.344Z,994.75
2017-09-09T16:40:36.838Z,994.78
2017-09-09T16:41:36.840Z,994.82
2017-09-09T16:43:31.840Z,994.85
2017-09-09T16:44:30.936Z,994.89
2017-09-09T16:46:25.584Z,994.84
2017-09-09T16:47:32.803Z,994.84
2017-09-09T16:49:19.617Z,994.87
2017-09-09T16:50:28.281Z,994.86
2017-09-09T16:52:14.220Z,994.93
2017-09-09T16:53:14.033Z,994.93
2017-09-09T16:55:08.561Z,994.92
2017-09-09T16:56:09.098Z,994.89
2017-09-09T16:58:03.929Z,994.91
2017-09-09T16:59:03.905Z,994.91
2017-09-09T17:00:58.369Z,994.96
2017-09-09T17:01:58.425Z,994.93
2017-09-09T17:03:51.961Z,994.95
2017-09-09T17:04:51.961Z,995.00
2017-09-09T17:06:46.522Z,994.94
2017-09-09T17:07:46.546Z,994.92
2017-09-09T17:09:40.041Z,994.91
2017-09-09T17:10:39.938Z,994.90
2017-09-09T17:12:35.945Z,994.86
2017-09-09T17:13:35.954Z,994.91
2017-09-09T17:15:30.471Z,994.87
2017-09-09T17:16:30.471Z,994.88
2017-09-09T17:18:24.910Z,994.91
2017-09-09T17:19:24.950Z,994.96
2017-09-09T17:21:19.391Z,995.00
2017-09-09T17:22:19.431Z,995.05
2017-09-09T17:24:13.207Z,995.07
2017-09-09T17:25:12.919Z,995.04
2017-09-09T17:27:07.415Z,995.07
2017-09-09T17:28:07.455Z,995.06
2017-09-09T17:30:00.976Z,995.08
2017-09-09T17:31:00.968Z,995.01
2017-09-09T17:32:55.408Z,995.05
2017-09-09T17:33:55.480Z,995.03
2017-09-09T17:35:51.424Z,995.01
2017-09-09T17:36:51.452Z,995.02
2017-09-09T17:38:45.903Z,995.09
2017-09-09T17:39:46.001Z,995.11
2017-09-09T17:41:39.448Z,995.09
2017-09-09T17:42:39.448Z,995.06
2017-09-09T17:44:32.968Z,995.04
2017-09-09T17:45:32.952Z,995.04
2017-09-09T17:47:27.440Z,995.04
2017-09-09T17:48:27.440Z,995.08
2017-09-09T17:50:21.955Z,995.12
2017-09-09T17:51:22.017Z,995.18
2017-09-09T17:53:16.471Z,995.17
2017-09-09T17:54:16.495Z,995.16
2017-09-09T17:56:10.940Z,995.15
2017-09-09T17:57:10.988Z,995.18
2017-09-09T17:59:05.620Z,995.16
2017-09-09T18:00:05.492Z,995.18
2017-09-09T18:01:59.997Z,995.20
2017-09-09T18:02:59.980Z,995.20
2017-09-09T18:04:54.623Z,995.20
2017-09-09T18:05:54.479Z,995.26
2017-09-09T18:07:47.649Z,995.21